Wetterdaten: Woche 19.11.07 - 25.11.07 (KW47)
Datum Zeit Temperatur Luftfeuchte Luftdruck Niederschlag Wind Richtung Sonnenschein Solar Taupunkt Windchill Windben
19.11.2007 00:00 -5.1 C 91 % 1011.0 hPa 0.0 l/m 1.5 km/h (1 Bft) O-SO 0.00 h 0 W/m -6.3 C -5.2 C 2.4 km/h (1 Bft)
19.11.2007 01:00 -5.2 C 91 % 1010.7 hPa 0.0 l/m 2.0 km/h (1 Bft) O-SO 0.00 h 0 W/m -6.4 C -5.4 C 3.2 km/h (1 Bft)
19.11.2007 02:00 -5.2 C 91 % 1011.1 hPa 0.0 l/m 1.0 km/h (0 Bft) O-SO 0.00 h 0 W/m -6.4 C -5.4 C 1.9 km/h (1 Bft)
19.11.2007 03:00 -5.2 C 92 % 1011.3 hPa 0.0 l/m 0.1 km/h (0 Bft) O-SO 0.00 h 0 W/m -6.3 C -5.2 C 0.3 km/h (0 Bft)
19.11.2007 04:00 -5.3 C 93 % 1011.5 hPa 0.0 l/m 2.4 km/h (1 Bft) O-SO 0.00 h 0 W/m -6.3 C -5.8 C 3.5 km/h (1 Bft)
19.11.2007 05:00 -5.1 C 92 % 1011.8 hPa 0.0 l/m 1.3 km/h (1 Bft) O-SO 0.00 h 0 W/m -6.2 C -5.1 C 2.3 km/h (1 Bft)
19.11.2007 06:00 -5.0 C 91 % 1012.2 hPa 0.0 l/m 0.5 km/h (0 Bft) O-SO 0.00 h 0 W/m -6.2 C -5.0 C 1.1 km/h (0 Bft)
19.11.2007 07:00 -5.0 C 91 % 1012.8 hPa 0.0 l/m 0.7 km/h (0 Bft) O-SO 0.00 h 6 W/m -6.2 C -5.0 C 1.2 km/h (1 Bft)
19.11.2007 08:00 -4.4 C 91 % 1013.6 hPa 0.0 l/m 0.2 km/h (0 Bft) O-SO 0.00 h 32 W/m -5.6 C -4.4 C 0.7 km/h (0 Bft)
19.11.2007 09:00 -3.5 C 90 % 1014.3 hPa 0.0 l/m 0.8 km/h (0 Bft) O-SO 0.00 h 96 W/m -4.9 C -3.6 C 1.9 km/h (1 Bft)
19.11.2007 10:00 -2.5 C 89 % 1015.2 hPa 0.0 l/m 1.8 km/h (1 Bft) SO 0.27 h 160 W/m -4.1 C -2.7 C 3.6 km/h (1 Bft)
19.11.2007 11:00 -0.9 C 85 % 1015.3 hPa 0.0 l/m 0.8 km/h (0 Bft) W 0.57 h 218 W/m -3.1 C -0.9 C 1.9 km/h (1 Bft)
19.11.2007 12:00 0.1 C 81 % 1015.3 hPa 0.0 l/m 0.8 km/h (0 Bft) W 0.40 h 202 W/m -2.7 C 0.1 C 2.0 km/h (1 Bft)
19.11.2007 13:00 1.0 C 77 % 1015.3 hPa 0.0 l/m 2.2 km/h (1 Bft) O-SO 0.75 h 204 W/m -2.5 C 0.9 C 4.5 km/h (1 Bft)
19.11.2007 14:00 1.2 C 77 % 1015.2 hPa 0.0 l/m 1.8 km/h (1 Bft) O-SO 0.00 h 120 W/m -2.3 C 1.1 C 3.8 km/h (1 Bft)
19.11.2007 15:00 0.8 C 80 % 1015.2 hPa 0.0 l/m 4.4 km/h (1 Bft) O-SO 0.03 h 76 W/m -2.3 C -0.2 C 6.8 km/h (2 Bft)
19.11.2007 16:00 0.3 C 82 % 1015.2 hPa 0.0 l/m 1.6 km/h (1 Bft) O-SO 0.00 h 22 W/m -2.5 C 0.1 C 3.0 km/h (1 Bft)
19.11.2007 17:00 -0.2 C 84 % 1015.5 hPa 0.0 l/m 1.4 km/h (1 Bft) O-SO 0.00 h 0 W/m -2.6 C -0.4 C 2.9 km/h (1 Bft)
19.11.2007 18:00 -0.2 C 84 % 1015.8 hPa 0.0 l/m 0.8 km/h (0 Bft) O-SO 0.00 h 0 W/m -2.5 C -0.2 C 1.5 km/h (1 Bft)
19.11.2007 19:00 -0.7 C 87 % 1016.1 hPa 0.0 l/m 0.0 km/h (0 Bft) O-SO 0.00 h 0 W/m -2.5 C -0.7 C 0.2 km/h (0 Bft)
19.11.2007 20:00 -1.5 C 90 % 1016.5 hPa 0.0 l/m 2.7 km/h (1 Bft) O-SO 0.00 h 0 W/m -2.9 C -1.7 C 3.8 km/h (1 Bft)
19.11.2007 21:00 -1.2 C 90 % 1016.8 hPa 0.0 l/m 2.9 km/h (1 Bft) O-SO 0.00 h 0 W/m -2.7 C -1.8 C 3.9 km/h (1 Bft)
19.11.2007 22:00 -1.6 C 91 % 1016.9 hPa 0.0 l/m 2.0 km/h (1 Bft) O 0.00 h 0 W/m -3.0 C -2.0 C 3.2 km/h (1 Bft)
19.11.2007 23:00 -1.6 C 91 % 1016.5 hPa 0.0 l/m 2.4 km/h (1 Bft) SO 0.00 h 0 W/m -2.8 C -2.1 C 3.6 km/h (1 Bft)
20.11.2007 00:00 -1.9 C 92 % 1016.7 hPa 0.0 l/m 0.7 km/h (0 Bft) SO 0.00 h 0 W/m -3.1 C -2.0 C 1.4 km/h (1 Bft)
20.11.2007 01:00 -2.5 C 94 % 1016.5 hPa 0.0 l/m 0.2 km/h (0 Bft) SO 0.00 h 0 W/m -3.4 C -2.5 C 0.5 km/h (0 Bft)
20.11.2007 02:00 -2.9 C 95 % 1016.4 hPa 0.0 l/m 1.0 km/h (0 Bft) SO 0.00 h 0 W/m -3.5 C -2.9 C 1.8 km/h (1 Bft)
20.11.2007 03:00 -3.1 C 96 % 1016.2 hPa 0.0 l/m 0.1 km/h (0 Bft) SO 0.00 h 0 W/m -3.6 C -3.1 C 0.6 km/h (0 Bft)
20.11.2007 04:00 -3.2 C 96 % 1015.5 hPa 0.0 l/m 0.2 km/h (0 Bft) SO 0.00 h 0 W/m -3.7 C -3.2 C 0.6 km/h (0 Bft)
20.11.2007 05:00 -2.7 C 97 % 1015.9 hPa 0.0 l/m 0.2 km/h (0 Bft) SO 0.00 h 0 W/m -3.1 C -2.7 C 0.5 km/h (0 Bft)
20.11.2007 06:00 -2.3 C 97 % 1015.8 hPa 0.0 l/m 0.3 km/h (0 Bft) SO 0.00 h 0 W/m -2.7 C -2.3 C 0.6 km/h (0 Bft)
20.11.2007 07:00 -1.8 C 97 % 1015.9 hPa 0.0 l/m 0.7 km/h (0 Bft) NO 0.00 h 5 W/m -2.2 C -1.8 C 1.8 km/h (1 Bft)
20.11.2007 08:00 -1.4 C 96 % 1016.9 hPa 0.0 l/m 0.9 km/h (0 Bft) O 0.00 h 14 W/m -1.9 C -1.4 C 1.8 km/h (1 Bft)
20.11.2007 09:00 -0.6 C 94 % 1017.0 hPa 0.0 l/m 1.7 km/h (1 Bft) O-SO 0.00 h 32 W/m -1.5 C -0.8 C 3.0 km/h (1 Bft)
20.11.2007 10:00 0.1 C 92 % 1017.0 hPa 0.0 l/m 0.8 km/h (0 Bft) NW 0.12 h 83 W/m -1.1 C 0.1 C 2.0 km/h (1 Bft)
20.11.2007 11:00 1.9 C 83 % 1016.2 hPa 0.0 l/m 1.4 km/h (1 Bft) O-SO 0.85 h 263 W/m -0.7 C 1.8 C 3.7 km/h (1 Bft)
20.11.2007 12:00 3.0 C 79 % 1015.2 hPa 0.0 l/m 2.8 km/h (1 Bft) O-SO 0.93 h 310 W/m -0.2 C 2.7 C 5.5 km/h (1 Bft)
20.11.2007 13:00 3.9 C 76 % 1014.6 hPa 0.0 l/m 3.1 km/h (1 Bft) O-SO 0.25 h 159 W/m 0.1 C 3.5 C 5.9 km/h (2 Bft)
20.11.2007 14:00 3.9 C 75 % 1013.5 hPa 0.0 l/m 1.9 km/h (1 Bft) O-SO 0.13 h 98 W/m -0.1 C 3.6 C 4.3 km/h (1 Bft)
20.11.2007 15:00 4.0 C 74 % 1013.2 hPa 0.0 l/m 1.9 km/h (1 Bft) O-SO 0.00 h 70 W/m -0.1 C 4.0 C 3.7 km/h (1 Bft)
20.11.2007 16:00 3.1 C 78 % 1013.0 hPa 0.0 l/m 4.2 km/h (1 Bft) O-SO 0.00 h 21 W/m -0.4 C 2.4 C 6.0 km/h (2 Bft)
20.11.2007 17:00 2.5 C 79 % 1013.6 hPa 0.0 l/m 1.1 km/h (1 Bft) O 0.00 h 0 W/m -0.8 C 2.4 C 2.1 km/h (1 Bft)
20.11.2007 18:00 1.8 C 84 % 1014.1 hPa 0.0 l/m 0.2 km/h (0 Bft) O-SO 0.00 h 0 W/m -0.6 C 1.8 C 1.0 km/h (0 Bft)
20.11.2007 19:00 1.0 C 87 % 1014.4 hPa 0.0 l/m 0.9 km/h (0 Bft) O-SO 0.00 h 0 W/m -0.8 C 1.0 C 1.7 km/h (1 Bft)
20.11.2007 20:00 1.5 C 87 % 1013.9 hPa 0.0 l/m 4.9 km/h (1 Bft) O-SO 0.00 h 0 W/m -0.5 C 0.1 C 7.0 km/h (2 Bft)
20.11.2007 21:00 1.9 C 86 % 1013.4 hPa 0.0 l/m 1.6 km/h (1 Bft) W-NW 0.00 h 0 W/m -0.1 C 1.8 C 3.2 km/h (1 Bft)
20.11.2007 22:00 1.9 C 86 % 1013.0 hPa 0.0 l/m 3.8 km/h (1 Bft) O-SO 0.00 h 0 W/m -0.1 C 1.0 C 5.3 km/h (1 Bft)
20.11.2007 23:00 2.0 C 86 % 1012.5 hPa 0.0 l/m 1.4 km/h (1 Bft) O 0.00 h 0 W/m -0.2 C 1.9 C 2.7 km/h (1 Bft)
21.11.2007 00:00 1.9 C 87 % 1012.1 hPa 0.0 l/m 1.0 km/h (0 Bft) O-SO 0.00 h 0 W/m -0.1 C 1.9 C 2.1 km/h (1 Bft)
21.11.2007 01:00 2.2 C 83 % 1011.7 hPa 0.0 l/m 1.3 km/h (1 Bft) O 0.00 h 0 W/m -0.4 C 2.1 C 2.5 km/h (1 Bft)
21.11.2007 02:00 2.1 C 83 % 1011.0 hPa 0.0 l/m 2.2 km/h (1 Bft) O-SO 0.00 h 0 W/m -0.4 C 1.8 C 4.2 km/h (1 Bft)
21.11.2007 03:00 2.2 C 84 % 1010.6 hPa 0.0 l/m 0.3 km/h (0 Bft) O-SO 0.00 h 0 W/m -0.3 C 2.2 C 0.7 km/h (0 Bft)
21.11.2007 04:00 2.3 C 84 % 1010.3 hPa 0.0 l/m 0.6 km/h (0 Bft) O-SO 0.00 h 0 W/m -0.1 C 2.2 C 1.7 km/h (1 Bft)
21.11.2007 05:00 2.3 C 86 % 1010.7 hPa 0.0 l/m 1.3 km/h (1 Bft) O-SO 0.00 h 0 W/m 0.2 C 2.2 C 2.9 km/h (1 Bft)
21.11.2007 06:00 2.2 C 89 % 1010.4 hPa 0.0 l/m 2.5 km/h (1 Bft) S-SO 0.00 h 0 W/m 0.5 C 1.9 C 4.4 km/h (1 Bft)
21.11.2007 07:00 2.5 C 86 % 1011.1 hPa 0.0 l/m 0.4 km/h (0 Bft) S-SO 0.00 h 7 W/m 0.4 C 2.5 C 1.4 km/h (1 Bft)
21.11.2007 08:00 2.7 C 85 % 1011.7 hPa 0.0 l/m 0.7 km/h (0 Bft) O-SO 0.00 h 27 W/m 0.5 C 2.7 C 1.5 km/h (1 Bft)
21.11.2007 09:00 3.2 C 83 % 1012.0 hPa 0.0 l/m 0.3 km/h (0 Bft) O-SO 0.00 h 39 W/m 0.6 C 3.2 C 1.0 km/h (0 Bft)
21.11.2007 10:00 3.9 C 81 % 1012.5 hPa 0.0 l/m 0.4 km/h (0 Bft) O 0.00 h 66 W/m 0.9 C 3.9 C 1.1 km/h (1 Bft)
21.11.2007 11:00 4.7 C 80 % 1013.2 hPa 0.0 l/m 1.2 km/h (1 Bft) SO 0.17 h 155 W/m 1.5 C 4.7 C 2.3 km/h (1 Bft)
21.11.2007 12:00 5.5 C 77 % 1012.8 hPa 0.0 l/m 0.6 km/h (0 Bft) SO 0.13 h 126 W/m 1.8 C 5.5 C 1.5 km/h (1 Bft)
21.11.2007 13:00 6.5 C 75 % 1012.5 hPa 0.0 l/m 1.5 km/h (1 Bft) SO 0.03 h 131 W/m 2.4 C 6.5 C 3.3 km/h (1 Bft)
21.11.2007 14:00 7.3 C 73 % 1012.2 hPa 0.0 l/m 1.2 km/h (1 Bft) NW 0.50 h 151 W/m 2.7 C 7.3 C 2.5 km/h (1 Bft)
21.11.2007 15:00 7.2 C 73 % 1012.5 hPa 0.0 l/m 0.5 km/h (0 Bft) W-NW 0.00 h 57 W/m 2.7 C 7.2 C 1.5 km/h (1 Bft)
21.11.2007 16:00 6.5 C 75 % 1012.6 hPa 0.0 l/m 1.2 km/h (1 Bft) O-SO 0.02 h 11 W/m 2.4 C 6.5 C 2.3 km/h (1 Bft)
21.11.2007 17:00 5.7 C 81 % 1012.7 hPa 0.0 l/m 1.5 km/h (1 Bft) O 0.00 h 0 W/m 2.7 C 5.6 C 2.7 km/h (1 Bft)
21.11.2007 18:00 5.0 C 84 % 1012.7 hPa 0.0 l/m 3.1 km/h (1 Bft) O-SO 0.00 h 0 W/m 2.5 C 4.7 C 4.9 km/h (1 Bft)
21.11.2007 19:00 4.7 C 87 % 1013.3 hPa 0.0 l/m 1.2 km/h (1 Bft) SO 0.00 h 0 W/m 2.6 C 4.6 C 2.2 km/h (1 Bft)
21.11.2007 20:00 4.7 C 89 % 1013.5 hPa 0.0 l/m 0.7 km/h (0 Bft) O 0.00 h 0 W/m 2.9 C 4.7 C 1.8 km/h (1 Bft)
21.11.2007 21:00 4.6 C 88 % 1013.1 hPa 0.0 l/m 1.0 km/h (0 Bft) O-SO 0.00 h 0 W/m 2.8 C 4.6 C 1.9 km/h (1 Bft)
21.11.2007 22:00 4.6 C 88 % 1013.1 hPa 0.0 l/m 0.8 km/h (0 Bft) N-NO 0.00 h 0 W/m 2.8 C 4.6 C 1.7 km/h (1 Bft)
21.11.2007 23:00 4.5 C 90 % 1012.9 hPa 0.6 l/m 0.6 km/h (0 Bft) SO 0.00 h 0 W/m 3.0 C 4.5 C 1.2 km/h (1 Bft)
22.11.2007 00:00 4.2 C 93 % 1013.0 hPa 0.0 l/m 1.3 km/h (1 Bft) SO 0.00 h 0 W/m 3.2 C 4.1 C 2.5 km/h (1 Bft)
22.11.2007 01:00 4.1 C 94 % 1012.5 hPa 0.2 l/m 0.7 km/h (0 Bft) N 0.00 h 0 W/m 3.3 C 4.1 C 1.7 km/h (1 Bft)
22.11.2007 02:00 4.2 C 95 % 1012.0 hPa 0.2 l/m 1.1 km/h (0 Bft) S-SO 0.00 h 0 W/m 3.5 C 4.1 C 2.2 km/h (1 Bft)
22.11.2007 03:00 3.9 C 96 % 1011.7 hPa 0.0 l/m 0.8 km/h (0 Bft) S-SO 0.00 h 0 W/m 3.3 C 3.9 C 1.5 km/h (1 Bft)
22.11.2007 04:00 3.5 C 96 % 1011.5 hPa 0.0 l/m 1.0 km/h (0 Bft) O 0.00 h 0 W/m 3.0 C 3.5 C 1.7 km/h (1 Bft)
22.11.2007 05:00 3.1 C 97 % 1011.5 hPa 0.0 l/m 0.4 km/h (0 Bft) O 0.00 h 0 W/m 2.7 C 3.1 C 1.0 km/h (0 Bft)
22.11.2007 06:00 3.0 C 97 % 1011.4 hPa 0.0 l/m 1.0 km/h (0 Bft) O 0.00 h 0 W/m 2.6 C 3.0 C 2.1 km/h (1 Bft)
22.11.2007 07:00 2.9 C 97 % 1011.1 hPa 0.0 l/m 1.6 km/h (1 Bft) O-SO 0.00 h 0 W/m 2.5 C 2.9 C 2.7 km/h (1 Bft)
22.11.2007 08:00 3.1 C 97 % 1011.3 hPa 0.0 l/m 0.5 km/h (0 Bft) O-SO 0.00 h 10 W/m 2.7 C 3.1 C 1.3 km/h (1 Bft)
22.11.2007 09:00 3.7 C 98 % 1011.4 hPa 0.0 l/m 0.1 km/h (0 Bft) O-SO 0.00 h 43 W/m 3.4 C 3.7 C 0.6 km/h (0 Bft)
22.11.2007 10:00 4.5 C 97 % 1011.1 hPa 0.0 l/m 0.0 km/h (0 Bft) O-SO 0.00 h 91 W/m 4.1 C 4.5 C 0.4 km/h (0 Bft)
22.11.2007 11:00 5.6 C 92 % 1010.5 hPa 0.0 l/m 1.5 km/h (1 Bft) N 0.00 h 134 W/m 4.4 C 5.6 C 2.9 km/h (1 Bft)
22.11.2007 12:00 6.2 C 90 % 1009.4 hPa 0.0 l/m 0.2 km/h (0 Bft) W 0.00 h 118 W/m 4.7 C 6.2 C 0.9 km/h (0 Bft)
22.11.2007 13:00 6.9 C 85 % 1008.6 hPa 0.0 l/m 0.3 km/h (0 Bft) O-SO 0.00 h 85 W/m 4.5 C 6.8 C 1.4 km/h (1 Bft)
22.11.2007 14:00 7.1 C 85 % 1008.7 hPa 0.0 l/m 1.0 km/h (0 Bft) O-SO 0.00 h 66 W/m 4.9 C 7.1 C 2.3 km/h (1 Bft)
22.11.2007 15:00 7.3 C 87 % 1009.0 hPa 0.0 l/m 3.4 km/h (1 Bft) O-SO 0.00 h 37 W/m 5.2 C 6.9 C 5.2 km/h (1 Bft)
22.11.2007 16:00 6.9 C 88 % 1009.2 hPa 0.0 l/m 2.4 km/h (1 Bft) O-SO 0.18 h 21 W/m 5.0 C 6.7 C 3.9 km/h (1 Bft)
22.11.2007 17:00 6.2 C 89 % 1009.6 hPa 0.0 l/m 1.9 km/h (1 Bft) O-SO 0.00 h 0 W/m 4.5 C 6.2 C 3.0 km/h (1 Bft)
22.11.2007 18:00 5.2 C 91 % 1009.9 hPa 0.0 l/m 2.0 km/h (1 Bft) O-SO 0.00 h 0 W/m 3.8 C 4.9 C 3.0 km/h (1 Bft)
22.11.2007 19:00 4.4 C 93 % 1009.9 hPa 0.0 l/m 0.2 km/h (0 Bft) O-SO 0.00 h 0 W/m 3.3 C 4.4 C 0.6 km/h (0 Bft)
22.11.2007 20:00 3.9 C 94 % 1009.8 hPa 0.0 l/m 0.6 km/h (0 Bft) O-SO 0.00 h 0 W/m 3.1 C 3.9 C 1.3 km/h (1 Bft)
22.11.2007 21:00 3.6 C 95 % 1009.7 hPa 0.0 l/m 0.5 km/h (0 Bft) O-SO 0.00 h 0 W/m 2.9 C 3.6 C 0.8 km/h (0 Bft)
22.11.2007 22:00 3.7 C 96 % 1009.7 hPa 0.0 l/m 0.0 km/h (0 Bft) O-SO 0.00 h 0 W/m 3.2 C 3.7 C 0.4 km/h (0 Bft)
22.11.2007 23:00 3.8 C 97 % 1009.8 hPa 0.0 l/m 3.9 km/h (1 Bft) O-SO 0.00 h 0 W/m 3.4 C 3.1 C 5.1 km/h (1 Bft)
23.11.2007 00:00 3.9 C 97 % 1009.7 hPa 0.0 l/m 1.8 km/h (1 Bft) SO 0.00 h 0 W/m 3.5 C 3.9 C 2.8 km/h (1 Bft)
23.11.2007 01:00 4.2 C 97 % 1009.1 hPa 0.0 l/m 0.2 km/h (0 Bft) O 0.00 h 0 W/m 3.8 C 4.2 C 0.6 km/h (0 Bft)
23.11.2007 02:00 4.5 C 97 % 1009.0 hPa 0.0 l/m 0.4 km/h (0 Bft) O 0.00 h 0 W/m 4.0 C 4.5 C 1.1 km/h (0 Bft)
23.11.2007 03:00 4.6 C 97 % 1009.2 hPa 0.0 l/m 1.3 km/h (1 Bft) O 0.00 h 0 W/m 4.2 C 4.6 C 2.5 km/h (1 Bft)
23.11.2007 04:00 5.0 C 96 % 1009.2 hPa 0.0 l/m 1.6 km/h (1 Bft) O 0.00 h 0 W/m 4.4 C 5.0 C 3.1 km/h (1 Bft)
23.11.2007 05:00 5.2 C 96 % 1009.4 hPa 0.0 l/m 0.1 km/h (0 Bft) SO 0.00 h 0 W/m 4.5 C 5.2 C 0.6 km/h (0 Bft)
23.11.2007 06:00 5.0 C 95 % 1009.7 hPa 0.0 l/m 0.7 km/h (0 Bft) SO 0.00 h 0 W/m 4.3 C 5.0 C 1.4 km/h (1 Bft)
23.11.2007 07:00 5.1 C 96 % 1010.0 hPa 0.0 l/m 0.4 km/h (0 Bft) S 0.00 h 0 W/m 4.5 C 5.1 C 1.2 km/h (1 Bft)
23.11.2007 08:00 5.0 C 96 % 1010.4 hPa 0.0 l/m 0.6 km/h (0 Bft) SW 0.00 h 9 W/m 4.4 C 5.0 C 0.9 km/h (0 Bft)
23.11.2007 09:00 5.3 C 97 % 1010.8 hPa 0.0 l/m 0.2 km/h (0 Bft) SW 0.00 h 25 W/m 4.8 C 5.3 C 0.7 km/h (0 Bft)
23.11.2007 10:00 5.8 C 97 % 1011.1 hPa 0.0 l/m 0.1 km/h (0 Bft) S 0.00 h 59 W/m 5.3 C 5.8 C 0.8 km/h (0 Bft)
23.11.2007 11:00 6.6 C 92 % 1011.4 hPa 0.0 l/m 0.3 km/h (0 Bft) S 0.00 h 93 W/m 5.4 C 6.6 C 1.2 km/h (1 Bft)
23.11.2007 12:00 7.2 C 91 % 1011.9 hPa 0.0 l/m 0.4 km/h (0 Bft) S 0.00 h 43 W/m 5.8 C 7.2 C 1.1 km/h (1 Bft)
23.11.2007 13:00 8.0 C 94 % 1012.3 hPa 0.0 l/m 2.5 km/h (1 Bft) W-SW 0.00 h 44 W/m 7.1 C 7.8 C 5.0 km/h (1 Bft)
23.11.2007 14:00 8.8 C 95 % 1012.6 hPa 0.4 l/m 1.9 km/h (1 Bft) S 0.00 h 42 W/m 8.0 C 8.7 C 4.1 km/h (1 Bft)
23.11.2007 15:00 8.7 C 94 % 1013.2 hPa 0.0 l/m 2.2 km/h (1 Bft) W-SW 0.00 h 18 W/m 7.8 C 8.6 C 4.6 km/h (1 Bft)
23.11.2007 16:00 8.7 C 94 % 1014.0 hPa 0.4 l/m 1.7 km/h (1 Bft) W-SW 0.00 h 5 W/m 7.7 C 8.6 C 4.0 km/h (1 Bft)
23.11.2007 17:00 8.2 C 94 % 1015.0 hPa 0.2 l/m 2.7 km/h (1 Bft) W-SW 0.00 h 0 W/m 7.2 C 8.1 C 4.7 km/h (1 Bft)
23.11.2007 18:00 7.9 C 94 % 1015.8 hPa 0.0 l/m 1.4 km/h (1 Bft) W-SW 0.00 h 0 W/m 7.0 C 7.9 C 3.2 km/h (1 Bft)
23.11.2007 19:00 7.8 C 95 % 1016.7 hPa 0.8 l/m 0.1 km/h (0 Bft) SW 0.00 h 0 W/m 7.0 C 7.8 C 0.7 km/h (0 Bft)
23.11.2007 20:00 7.6 C 96 % 1017.5 hPa 1.0 l/m 1.0 km/h (0 Bft) S-SW 0.00 h 0 W/m 6.9 C 7.6 C 2.0 km/h (1 Bft)
23.11.2007 21:00 7.4 C 97 % 1018.1 hPa 0.4 l/m 1.4 km/h (1 Bft) O-SO 0.00 h 0 W/m 6.9 C 7.4 C 2.6 km/h (1 Bft)
23.11.2007 22:00 7.2 C 97 % 1018.5 hPa 0.2 l/m 0.5 km/h (0 Bft) O-SO 0.00 h 0 W/m 6.7 C 7.2 C 1.2 km/h (1 Bft)
23.11.2007 23:00 7.0 C 98 % 1018.8 hPa 0.2 l/m 0.1 km/h (0 Bft) O-SO 0.00 h 0 W/m 6.7 C 7.0 C 0.5 km/h (0 Bft)
24.11.2007 00:00 6.9 C 98 % 1019.0 hPa 0.2 l/m 0.0 km/h (0 Bft) N 0.00 h 0 W/m 6.6 C 6.9 C 0.0 km/h (0 Bft)
24.11.2007 01:00 6.8 C 98 % 1019.0 hPa 0.0 l/m 0.0 km/h (0 Bft) N 0.00 h 0 W/m 6.5 C 6.8 C 0.0 km/h (0 Bft)
24.11.2007 02:00 6.9 C 99 % 1019.3 hPa 0.4 l/m 0.1 km/h (0 Bft) O-SO 0.00 h 0 W/m 6.7 C 6.9 C 0.6 km/h (0 Bft)
24.11.2007 03:00 7.0 C 99 % 1019.8 hPa 0.4 l/m 1.5 km/h (1 Bft) N-NO 0.00 h 0 W/m 6.9 C 6.9 C 3.7 km/h (1 Bft)
24.11.2007 04:00 6.7 C 98 % 1020.1 hPa 0.4 l/m 2.0 km/h (1 Bft) O-NO 0.00 h 0 W/m 6.5 C 6.7 C 4.9 km/h (1 Bft)
24.11.2007 05:00 6.4 C 96 % 1020.6 hPa 0.4 l/m 2.4 km/h (1 Bft) NO 0.00 h 0 W/m 5.9 C 6.4 C 5.5 km/h (1 Bft)
24.11.2007 06:00 6.4 C 94 % 1020.7 hPa 0.0 l/m 1.7 km/h (1 Bft) NO 0.00 h 0 W/m 5.6 C 6.4 C 4.3 km/h (1 Bft)
24.11.2007 07:00 6.3 C 93 % 1021.0 hPa 0.0 l/m 0.4 km/h (0 Bft) NO 0.00 h 0 W/m 5.3 C 6.3 C 1.6 km/h (1 Bft)
24.11.2007 08:00 6.3 C 93 % 1021.6 hPa 0.0 l/m 0.8 km/h (0 Bft) O 0.00 h 11 W/m 5.3 C 6.3 C 2.2 km/h (1 Bft)
24.11.2007 09:00 6.6 C 92 % 1021.7 hPa 0.0 l/m 2.1 km/h (1 Bft) N 0.00 h 27 W/m 5.3 C 6.4 C 4.3 km/h (1 Bft)
24.11.2007 10:00 6.3 C 90 % 1021.8 hPa 0.0 l/m 5.8 km/h (2 Bft) N-NO 0.00 h 36 W/m 4.7 C 5.3 C 10.3 km/h (2 Bft)
24.11.2007 11:00 6.2 C 88 % 1021.8 hPa 0.0 l/m 5.1 km/h (1 Bft) N 0.00 h 65 W/m 4.3 C 5.5 C 9.3 km/h (2 Bft)
24.11.2007 12:00 6.4 C 86 % 1021.5 hPa 0.0 l/m 2.5 km/h (1 Bft) N-NO 0.00 h 61 W/m 4.2 C 6.3 C 5.3 km/h (1 Bft)
24.11.2007 13:00 6.8 C 84 % 1021.4 hPa 0.0 l/m 3.4 km/h (1 Bft) N-NO 0.00 h 67 W/m 4.2 C 6.4 C 6.8 km/h (2 Bft)
24.11.2007 14:00 6.8 C 83 % 1021.4 hPa 0.0 l/m 4.0 km/h (1 Bft) N 0.00 h 30 W/m 4.1 C 6.3 C 7.1 km/h (2 Bft)
24.11.2007 15:00 6.5 C 83 % 1021.7 hPa 0.0 l/m 4.7 km/h (1 Bft) N 0.00 h 14 W/m 3.8 C 5.9 C 7.9 km/h (2 Bft)
24.11.2007 16:00 6.0 C 85 % 1021.9 hPa 0.0 l/m 2.5 km/h (1 Bft) N-NO 0.00 h 7 W/m 3.7 C 5.8 C 5.0 km/h (1 Bft)
24.11.2007 17:00 5.5 C 89 % 1022.5 hPa 0.0 l/m 4.5 km/h (1 Bft) N-NW 0.00 h 0 W/m 3.9 C 4.8 C 7.1 km/h (2 Bft)
24.11.2007 18:00 4.9 C 92 % 1022.7 hPa 0.0 l/m 5.4 km/h (1 Bft) N-NW 0.00 h 0 W/m 3.7 C 4.0 C 8.1 km/h (2 Bft)
24.11.2007 19:00 4.6 C 93 % 1023.1 hPa 0.0 l/m 3.4 km/h (1 Bft) N-NW 0.00 h 0 W/m 3.6 C 4.3 C 5.6 km/h (1 Bft)
24.11.2007 20:00 4.4 C 93 % 1023.1 hPa 0.0 l/m 4.0 km/h (1 Bft) N-NW 0.00 h 0 W/m 3.4 C 3.9 C 6.4 km/h (2 Bft)
24.11.2007 21:00 4.2 C 94 % 1023.5 hPa 0.0 l/m 3.3 km/h (1 Bft) NW 0.00 h 0 W/m 3.4 C 3.9 C 5.5 km/h (1 Bft)
24.11.2007 22:00 4.2 C 94 % 1023.7 hPa 0.0 l/m 1.5 km/h (1 Bft) NW 0.00 h 0 W/m 3.3 C 4.2 C 3.3 km/h (1 Bft)
24.11.2007 23:00 4.1 C 93 % 1023.6 hPa 0.0 l/m 2.1 km/h (1 Bft) W-NW 0.00 h 0 W/m 3.1 C 4.0 C 3.9 km/h (1 Bft)
25.11.2007 00:00 4.0 C 92 % 1023.3 hPa 0.0 l/m 5.2 km/h (1 Bft) W-NW 0.00 h 0 W/m 2.8 C 3.0 C 8.2 km/h (2 Bft)
25.11.2007 01:00 3.8 C 92 % 1023.2 hPa 0.0 l/m 7.7 km/h (2 Bft) W-SW 0.00 h 0 W/m 2.7 C 2.0 C 12.8 km/h (3 Bft)
25.11.2007 02:00 3.8 C 92 % 1023.4 hPa 0.0 l/m 4.7 km/h (1 Bft) W-SW 0.00 h 0 W/m 2.6 C 3.0 C 8.1 km/h (2 Bft)
25.11.2007 03:00 3.8 C 89 % 1023.7 hPa 0.0 l/m 7.1 km/h (2 Bft) W 0.00 h 0 W/m 2.2 C 2.1 C 11.0 km/h (2 Bft)
25.11.2007 04:00 3.8 C 87 % 1023.7 hPa 0.0 l/m 3.6 km/h (1 Bft) W 0.00 h 0 W/m 1.8 C 3.3 C 6.2 km/h (2 Bft)
25.11.2007 05:00 3.8 C 88 % 1023.7 hPa 0.0 l/m 5.6 km/h (1 Bft) W 0.00 h 0 W/m 2.0 C 2.6 C 9.1 km/h (2 Bft)
25.11.2007 06:00 3.7 C 87 % 1023.9 hPa 0.0 l/m 8.1 km/h (2 Bft) W 0.00 h 0 W/m 1.7 C 1.6 C 12.6 km/h (3 Bft)
25.11.2007 07:00 3.3 C 86 % 1024.0 hPa 0.0 l/m 8.7 km/h (2 Bft) W 0.03 h 13 W/m 1.2 C 1.1 C 13.3 km/h (3 Bft)
25.11.2007 08:00 3.4 C 86 % 1024.5 hPa 0.0 l/m 3.0 km/h (1 Bft) W 0.10 h 14 W/m 1.3 C 3.1 C 4.9 km/h (1 Bft)
25.11.2007 09:00 3.7 C 86 % 1024.6 hPa 0.0 l/m 3.4 km/h (1 Bft) W 0.00 h 26 W/m 1.5 C 3.2 C 5.7 km/h (1 Bft)
25.11.2007 10:00 4.3 C 79 % 1024.7 hPa 0.0 l/m 5.9 km/h (2 Bft) W 0.00 h 44 W/m 1.0 C 3.1 C 9.3 km/h (2 Bft)
25.11.2007 11:00 4.7 C 75 % 1024.9 hPa 0.0 l/m 6.7 km/h (2 Bft) W 0.00 h 67 W/m 0.5 C 3.3 C 10.3 km/h (2 Bft)
25.11.2007 12:00 4.9 C 72 % 1024.6 hPa 0.0 l/m 7.6 km/h (2 Bft) W-NW 0.00 h 70 W/m 0.2 C 3.2 C 11.6 km/h (2 Bft)
25.11.2007 13:00 5.0 C 73 % 1023.9 hPa 0.0 l/m 4.6 km/h (1 Bft) W-NW 0.00 h 80 W/m 0.7 C 4.3 C 7.7 km/h (2 Bft)
25.11.2007 14:00 4.9 C 76 % 1023.8 hPa 0.0 l/m 7.1 km/h (2 Bft) W 0.00 h 75 W/m 1.0 C 3.4 C 10.9 km/h (2 Bft)
25.11.2007 15:00 4.5 C 80 % 1023.6 hPa 0.0 l/m 7.0 km/h (2 Bft) W 0.00 h 22 W/m 1.3 C 3.0 C 10.9 km/h (2 Bft)
25.11.2007 16:00 4.3 C 81 % 1023.9 hPa 0.0 l/m 11.3 km/h (2 Bft) W-NW 0.00 h 9 W/m 1.3 C 1.7 C 16.9 km/h (3 Bft)
25.11.2007 17:00 4.6 C 79 % 1024.3 hPa 0.0 l/m 15.6 km/h (3 Bft) W-NW 0.00 h 0 W/m 1.3 C 1.2 C 22.4 km/h (4 Bft)
25.11.2007 18:00 4.5 C 82 % 1025.1 hPa 0.0 l/m 13.5 km/h (3 Bft) W 0.00 h 0 W/m 1.6 C 1.4 C 20.6 km/h (4 Bft)
25.11.2007 19:00 4.3 C 83 % 1025.0 hPa 0.0 l/m 12.9 km/h (3 Bft) W-NW 0.00 h 0 W/m 1.7 C 1.3 C 19.1 km/h (3 Bft)
25.11.2007 20:00 4.6 C 82 % 1025.1 hPa 0.0 l/m 9.2 km/h (2 Bft) W 0.00 h 0 W/m 1.9 C 2.5 C 13.5 km/h (3 Bft)
25.11.2007 21:00 4.6 C 83 % 1025.5 hPa 0.0 l/m 12.5 km/h (3 Bft) W 0.00 h 0 W/m 1.9 C 1.8 C 17.9 km/h (3 Bft)
25.11.2007 22:00 4.8 C 81 % 1025.3 hPa 0.0 l/m 15.1 km/h (3 Bft) W-NW 0.00 h 0 W/m 1.8 C 1.6 C 21.7 km/h (4 Bft)
25.11.2007 23:00 4.8 C 80 % 1025.0 hPa 0.0 l/m 11.6 km/h (2 Bft) W-NW 0.00 h 0 W/m 1.7 C 2.2 C 17.0 km/h (3 Bft)
Min-Datum _ 19.11.07 21.11.07 22.11.07 - 19.11.07 - - - 19.11.07 19.11.07 19.11.07
_ Min-Zeit 03:00 14:39 13:15 - 00:00 - - - 02:58 04:36 00:25
Minimum _ -5.5 C 70 % 1008.5 hPa - 0.0 km/h (0 Bft) - - - -6.8 C -8.6 C 0.0 km/h (0 Bft)
Max-Datum _ 23.11.07 24.11.07 25.11.07 23.11.07 25.11.07 - 19.11.07 20.11.07 23.11.07 23.11.07 25.11.07
_ Max-Zeit 14:25 02:08 21:15 20:02 22:30 - 10:42 13:02 14:25 14:25 17:08
Maximum _ 8.9 C 99 % 1025.6 hPa 1.0 l/m 25.0 km/h
W-NW (4 Bft)
- 0.02 h 413 W/m 8.1 C 8.9 C 33.0 km/h
W (5 Bft)
Durchschnitt _ 3.4 C 89 % 1015.8 hPa #6.4 l/m 2.4 km/h (1 Bft) O-SO #5:28 h 69 W/m 1.7 C 3.0 C 4.2 km/h (1 Bft)
© Kaiko 2007